Time;durP1;ratioP1;P1;durP2;ratioP2;P2;SDS_P1;SDS_P2;PMS_P1;PMS_P2;Temp;Humidity;BMP_temperature;BMP_pressure;BME280_temperature;BME280_humidity;BME280_pressure;Samples;Min_cycle;Max_cycle;Signal;HPM_P1;HPM_P2
2022/08/12 00:44:49;;;;;;;6.63;5.68;;;22.10;1.00;;;;;;5117632;28;20224;-72
2022/08/12 00:47:18;;;;;;;7.00;5.70;;;22.10;39.90;;;;;;5117259;28;20177;-72
2022/08/12 00:49:44;;;;;;;11.35;5.78;;;22.00;1.00;;;;;;5117468;28;20170;-71
2022/08/12 00:52:11;;;;;;;8.02;4.82;;;22.00;1.00;;;;;;5117087;28;20250;-72
2022/08/12 00:54:52;;;;;;;7.38;5.25;;;22.00;1.00;;;;;;5117270;28;20533;-71
2022/08/12 00:57:35;;;;;;;7.63;5.15;;;22.00;1.00;;;;;;5116873;28;20167;-71
2022/08/12 01:00:09;;;;;;;9.25;5.07;;;21.90;1.00;;;;;;5117254;28;20183;-71
2022/08/12 01:02:40;;;;;;;8.63;5.53;;;21.90;1.00;;;;;;5117019;28;20173;-72
2022/08/12 01:13:28;;;;;;;6.05;5.40;;;21.70;99.90;;;;;;5116850;28;20268;-72
2022/08/12 01:15:57;;;;;;;6.85;5.63;;;21.70;72.30;;;;;;5116583;28;20168;-72
2022/08/12 01:18:26;;;;;;;7.15;5.75;;;21.70;99.90;;;;;;5117013;28;20196;-72
2022/08/12 01:21:05;;;;;;;6.07;5.35;;;21.60;99.90;;;;;;5116836;28;20216;-72
2022/08/12 01:23:36;;;;;;;9.63;5.60;;;21.60;99.90;;;;;;5116813;28;20662;-72
2022/08/12 01:26:05;;;;;;;6.85;5.75;;;21.50;99.90;;;;;;5116476;28;20199;-71
2022/08/12 01:28:34;;;;;;;9.27;5.78;;;21.50;99.90;;;;;;5116501;28;20670;-72
2022/08/12 01:31:04;;;;;;;9.25;6.10;;;21.50;99.90;;;;;;5116682;28;20174;-72
2022/08/12 01:33:38;;;;;;;9.68;5.53;;;21.50;99.90;;;;;;5116369;28;20254;-71
2022/08/12 01:36:08;;;;;;;10.40;6.78;;;21.40;99.90;;;;;;5116456;28;20171;-71
2022/08/12 01:38:35;;;;;;;8.57;5.40;;;21.40;1.00;;;;;;5116552;28;20194;-71
2022/08/12 01:41:02;;;;;;;9.75;5.93;;;21.40;1.00;;;;;;5115265;28;20175;-72
2022/08/12 01:43:29;;;;;;;8.60;5.75;;;21.40;99.90;;;;;;5116300;28;20623;-72
2022/08/12 01:46:21;;;;;;;7.43;5.32;;;21.40;99.90;;;;;;5116273;28;20172;-71
2022/08/12 01:48:55;;;;;;;10.20;5.68;;;21.30;1.00;;;;;;5116462;28;20241;-71
2022/08/12 01:51:41;;;;;;;8.23;5.38;;;21.30;1.00;;;;;;5116067;28;20223;-72
2022/08/12 01:54:17;;;;;;;7.25;6.20;;;21.20;1.00;;;;;;5115896;28;20191;-72
2022/08/12 01:56:54;;;;;;;7.68;5.47;;;21.20;1.00;;;;;;5116112;28;20238;-72
2022/08/12 01:59:58;;;;;;;9.45;5.78;;;21.20;1.00;;;;;;5116141;28;20163;-72
2022/08/12 02:02:26;;;;;;;9.13;5.22;;;21.10;1.00;;;;;;5112074;28;20220;-72
2022/08/12 02:11:20;;;;;;;6.13;5.63;;;21.00;99.90;;;;;;5115978;28;20182;-72
2022/08/12 02:14:04;;;;;;;7.72;5.97;;;20.90;99.90;;;;;;5097429;28;20175;-72
2022/08/12 02:16:48;;;;;;;5.80;5.30;;;20.90;1.00;;;;;;5115319;28;20215;-72
2022/08/12 02:19:34;;;;;;;6.40;5.45;;;20.90;1.00;;;;;;5115868;28;20175;-72
2022/08/12 02:22:35;;;;;;;9.77;5.85;;;20.80;67.00;;;;;;5115526;28;20168;-71
2022/08/12 02:25:07;;;;;;;7.85;5.68;;;20.80;99.90;;;;;;5115925;28;20167;-71
2022/08/12 02:27:38;;;;;;;10.32;5.53;;;20.80;99.90;;;;;;5115290;28;20203;-71
2022/08/12 02:30:07;;;;;;;8.45;5.65;;;20.80;99.90;;;;;;5115322;28;20232;-71
2022/08/12 02:32:38;;;;;;;6.45;5.80;;;20.70;99.90;;;;;;5115236;28;20262;-71
2022/08/12 02:35:07;;;;;;;9.45;6.00;;;20.60;1.00;;;;;;5115293;28;20162;-71
2022/08/12 02:37:35;;;;;;;8.20;6.10;;;20.60;1.00;;;;;;5114937;28;20175;-71
2022/08/12 02:40:02;;;;;;;6.68;5.50;;;20.50;1.00;;;;;;5115334;28;20163;-72
2022/08/12 02:42:31;;;;;;;9.48;5.97;;;20.50;1.00;;;;;;5114746;28;20167;-72
2022/08/12 02:45:03;;;;;;;6.97;5.88;;;20.50;1.00;;;;;;5115068;28;20201;-72
2022/08/12 02:47:33;;;;;;;6.90;6.28;;;20.50;98.10;;;;;;5114916;28;20191;-72
2022/08/12 02:50:02;;;;;;;7.32;5.75;;;20.50;99.90;;;;;;5115108;28;20184;-72
2022/08/12 02:52:28;;;;;;;11.13;6.13;;;20.40;1.00;;;;;;5114590;28;20156;-72
2022/08/12 02:55:21;;;;;;;8.93;6.45;;;20.40;1.00;;;;;;5114987;28;20622;-72
2022/08/12 02:57:47;;;;;;;13.57;6.35;;;20.40;1.00;;;;;;5103660;28;20188;-71
2022/08/12 03:00:17;;;;;;;15.57;6.97;;;20.30;1.00;;;;;;5114757;28;20180;-72
2022/08/12 03:02:45;;;;;;;11.05;6.60;;;20.30;34.80;;;;;;5114665;28;20163;-71
2022/08/12 03:05:14;;;;;;;13.55;6.68;;;20.20;99.90;;;;;;5114722;28;20179;-72
2022/08/12 03:07:48;;;;;;;9.02;6.88;;;20.20;1.00;;;;;;5114395;28;20199;-72
2022/08/12 03:10:17;;;;;;;10.15;6.38;;;20.10;1.00;;;;;;5114697;28;20166;-72
2022/08/12 03:12:44;;;;;;;8.18;6.72;;;20.10;99.90;;;;;;5114293;28;20232;-72
2022/08/12 03:15:14;;;;;;;8.40;6.90;;;20.10;1.00;;;;;;5114206;28;20175;-71
2022/08/12 03:17:48;;;;;;;10.77;6.78;;;20.00;1.00;;;;;;5113857;28;20674;-71
2022/08/12 03:20:16;;;;;;;12.82;7.50;;;20.00;99.90;;;;;;5114054;28;20213;-71
2022/08/12 03:22:44;;;;;;;12.25;7.65;;;19.90;1.00;;;;;;5114158;28;20183;-72
2022/08/12 03:25:26;;;;;;;13.85;7.47;;;19.90;1.00;;;;;;5114231;28;20167;-72
2022/08/12 03:27:57;;;;;;;12.50;7.40;;;19.80;1.00;;;;;;5114326;28;20230;-72
2022/08/12 03:30:23;;;;;;;9.18;6.90;;;19.80;1.00;;;;;;5114077;28;20616;-72
2022/08/12 03:32:51;;;;;;;13.35;7.40;;;19.70;1.00;;;;;;5113683;28;20179;-72
2022/08/12 03:35:25;;;;;;;11.50;7.05;;;19.70;1.00;;;;;;5113918;28;20178;-72
2022/08/12 03:37:52;;;;;;;11.02;6.93;;;19.70;99.90;;;;;;5114162;28;20166;-72
2022/08/12 04:02:24;;;;;;;13.88;8.18;;;19.40;1.00;;;;;;5113709;28;20174;-71
2022/08/12 04:04:49;;;;;;;13.80;8.02;;;19.50;1.00;;;;;;5112610;28;20232;-71
2022/08/12 04:07:15;;;;;;;11.77;8.13;;;19.40;1.00;;;;;;5113272;28;20171;-71
2022/08/12 04:09:44;;;;;;;11.70;7.63;;;19.40;1.00;;;;;;5113603;28;20167;-71
2022/08/12 04:14:56;;;;;;;8.65;7.28;;;19.40;1.00;;;;;;5113911;28;20185;-71
2022/08/12 04:17:22;;;;;;;14.65;7.63;;;19.30;1.00;;;;;;5112749;28;20220;-72
2022/08/12 04:19:48;;;;;;;20.63;7.50;;;19.30;97.40;;;;;;5112803;28;20175;-71
2022/08/12 04:22:14;;;;;;;13.90;7.22;;;19.20;99.90;;;;;;5094359;28;20198;-71
2022/08/12 04:24:41;;;;;;;10.03;6.83;;;19.20;99.90;;;;;;5113411;28;20213;-71
2022/08/12 04:27:09;;;;;;;25.60;8.18;;;19.20;99.90;;;;;;5113474;28;20167;-71
2022/08/12 04:29:37;;;;;;;12.05;7.55;;;19.20;99.90;;;;;;5113245;28;20187;-71
2022/08/12 04:32:03;;;;;;;14.38;6.97;;;19.20;99.90;;;;;;5112591;28;20171;-72
2022/08/12 04:34:29;;;;;;;19.40;7.55;;;19.20;99.90;;;;;;5112649;28;20523;-72
2022/08/12 04:36:55;;;;;;;17.17;8.02;;;19.30;99.90;;;;;;5112834;28;20160;-72
2022/08/12 04:39:21;;;;;;;14.75;7.13;;;19.30;99.90;;;;;;5113118;28;20171;-72
2022/08/12 04:41:48;;;;;;;17.45;7.82;;;19.30;1.00;;;;;;5112965;28;20159;-72
2022/08/12 04:44:14;;;;;;;17.33;7.80;;;19.40;1.00;;;;;;5113166;28;20171;-72
2022/08/12 04:46:40;;;;;;;26.15;8.50;;;19.60;1.00;;;;;;5112827;28;20168;-72
2022/08/12 04:49:06;;;;;;;25.00;8.38;;;20.00;99.90;;;;;;5112727;28;20301;-72
2022/08/12 04:51:33;;;;;;;18.98;9.70;;;20.40;1.00;;;;;;5112415;28;20259;-72
2022/08/12 04:54:00;;;;;;;26.80;10.75;;;20.80;99.90;;;;;;5112059;28;20179;-72
2022/08/12 04:56:28;;;;;;;22.48;8.10;;;21.20;99.90;;;;;;5113134;28;20170;-72
2022/08/12 04:58:55;;;;;;;16.73;7.28;;;21.50;99.90;;;;;;5113087;28;20175;-72
2022/08/12 05:01:21;;;;;;;15.70;7.22;;;21.70;1.00;;;;;;5112650;28;20199;-72
2022/08/12 05:03:49;;;;;;;15.52;7.60;;;22.10;99.90;;;;;;5112684;28;20167;-72
2022/08/12 05:06:15;;;;;;;18.30;7.82;;;22.90;1.00;;;;;;5112854;28;20167;-72
2022/08/12 05:08:40;;;;;;;23.50;7.55;;;23.50;1.00;;;;;;5112478;28;20207;-72
2022/08/12 05:11:06;;;;;;;26.90;7.88;;;24.30;1.00;;;;;;5112864;28;20169;-72
2022/08/12 05:13:38;;;;;;;15.80;7.22;;;25.10;1.00;;;;;;5094064;28;20658;-72
2022/08/12 05:16:05;;;;;;;23.80;7.55;;;25.60;99.90;;;;;;5113452;28;20233;-72
2022/08/12 05:18:36;;;;;;;20.10;7.32;;;26.00;99.90;;;;;;5116031;28;20190;-73
2022/08/12 05:21:02;;;;;;;14.65;7.32;;;26.10;99.90;;;;;;5116350;28;20208;-73
2022/08/12 05:23:29;;;;;;;25.33;7.57;;;26.80;99.90;;;;;;5116294;28;20256;-73
2022/08/12 05:25:55;;;;;;;25.70;7.97;;;27.20;99.90;;;;;;5116246;28;20172;-73
2022/08/12 05:28:22;;;;;;;25.83;8.32;;;27.90;99.90;;;;;;5116239;28;20217;-73
2022/08/12 05:30:48;;;;;;;19.80;7.80;;;28.10;99.90;;;;;;5116076;28;20167;-75
2022/08/12 05:33:14;;;;;;;24.38;7.68;;;27.70;99.90;;;;;;5097568;28;20171;-75
2022/08/12 05:35:42;;;;;;;31.63;8.63;;;28.20;99.90;;;;;;5116247;28;20258;-75
2022/08/12 05:40:54;;;;;;;29.20;9.00;;;29.50;99.90;;;;;;5115731;28;20259;-76
2022/08/12 05:43:20;;;;;;;22.33;7.88;;;29.50;99.90;;;;;;5115429;28;20596;-76
2022/08/12 05:45:46;;;;;;;20.17;8.15;;;29.90;99.90;;;;;;5115398;28;20223;-75
2022/08/12 05:48:13;;;;;;;24.27;7.68;;;29.40;99.90;;;;;;5115736;28;20202;-76
2022/08/12 05:50:40;;;;;;;25.40;8.60;;;29.60;99.90;;;;;;5115528;28;20163;-76
2022/08/12 05:53:05;;;;;;;35.40;7.82;;;30.30;99.90;;;;;;5115261;28;20182;-76
2022/08/12 05:55:32;;;;;;;24.35;7.85;;;29.50;99.90;;;;;;5115470;28;20155;-76
2022/08/12 05:57:58;;;;;;;22.35;7.78;;;29.10;99.90;;;;;;5115560;28;20186;-76
2022/08/12 06:00:25;;;;;;;35.38;8.00;;;28.70;99.90;;;;;;5115305;28;20644;-76
2022/08/12 06:03:01;;;;;;;23.65;7.13;;;29.70;99.90;;;;;;5096550;28;20630;-77
2022/08/12 06:05:35;;;;;;;23.73;8.10;;;30.20;99.90;;;;;;5096952;28;20519;-78
2022/08/12 06:08:06;;;;;;;14.93;7.20;;;30.50;99.90;;;;;;5096781;28;20207;-77
2022/08/12 06:10:36;;;;;;;22.95;8.40;;;30.40;93.80;;;;;;5115237;28;20242;-78
2022/08/12 06:13:04;;;;;;;21.85;7.38;;;30.70;90.90;;;;;;5115066;28;20163;-76
2022/08/12 06:15:31;;;;;;;18.80;7.55;;;31.20;87.50;;;;;;5114752;28;20196;-77
2022/08/12 06:18:05;;;;;;;17.80;7.03;;;31.60;75.30;;;;;;5115121;28;21229;-78
2022/08/12 06:20:30;;;;;;;19.17;7.30;;;31.60;64.60;;;;;;5114239;28;20602;-78
2022/08/12 06:22:56;;;;;;;13.07;7.03;;;31.90;56.20;;;;;;5114891;28;20315;-78
2022/08/12 06:25:22;;;;;;;15.68;6.95;;;32.30;47.50;;;;;;5115057;28;20163;-78
2022/08/12 06:27:48;;;;;;;11.65;6.65;;;33.60;39.70;;;;;;5114374;28;20501;-77
2022/08/12 06:30:15;;;;;;;16.90;6.50;;;34.80;42.90;;;;;;5114310;28;20168;-77
2022/08/12 06:32:44;;;;;;;9.15;6.40;;;34.90;11.00;;;;;;5114581;28;20171;-77
2022/08/12 06:35:13;;;;;;;13.82;6.63;;;34.60;9.80;;;;;;5115158;28;20165;-78
2022/08/12 06:37:44;;;;;;;15.75;6.88;;;34.50;8.10;;;;;;5114555;28;20171;-76
2022/08/12 06:40:11;;;;;;;9.88;5.95;;;34.90;7.20;;;;;;5114496;28;20920;-76
2022/08/12 06:42:47;;;;;;;16.10;6.68;;;35.20;1.60;;;;;;5114682;28;20228;-76
2022/08/12 06:45:16;;;;;;;8.82;6.57;;;34.70;1.00;;;;;;5113757;28;20173;-77
2022/08/12 06:47:42;;;;;;;9.25;5.82;;;33.40;1.00;;;;;;5114664;28;20236;-78
2022/08/12 06:50:08;;;;;;;12.60;6.45;;;32.40;2.90;;;;;;5114036;28;20167;-75
2022/08/12 06:52:34;;;;;;;10.65;6.00;;;33.50;3.80;;;;;;5114217;28;20179;-76
2022/08/12 06:54:59;;;;;;;10.90;5.82;;;34.20;1.00;;;;;;5114264;28;20220;-76
2022/08/12 06:57:28;;;;;;;11.88;5.45;;;34.60;1.00;;;;;;5114182;28;20178;-76
2022/08/12 06:59:55;;;;;;;13.68;6.07;;;34.30;1.00;;;;;;5094814;28;20175;-76
2022/08/12 07:02:21;;;;;;;11.45;5.65;;;34.80;1.00;;;;;;5114166;28;20167;-76
2022/08/12 07:04:48;;;;;;;11.15;5.65;;;35.30;1.00;;;;;;5113673;28;20167;-78
2022/08/12 07:07:14;;;;;;;10.70;6.00;;;36.00;1.00;;;;;;5114099;28;20163;-76
2022/08/12 07:09:43;;;;;;;9.07;5.03;;;36.10;1.00;;;;;;5114043;28;20289;-76
2022/08/12 07:12:16;;;;;;;7.88;5.45;;;35.30;1.00;;;;;;5095431;28;20163;-76
2022/08/12 07:14:42;;;;;;;7.75;5.32;;;33.90;1.00;;;;;;5113915;28;20177;-76
2022/08/12 07:17:08;;;;;;;8.50;5.10;;;34.60;1.00;;;;;;5113787;28;20306;-76
2022/08/12 07:19:35;;;;;;;8.60;5.13;;;35.30;1.00;;;;;;5113917;28;20222;-76
2022/08/12 07:22:05;;;;;;;7.63;4.50;;;34.80;1.00;;;;;;5114307;28;20171;-76
2022/08/12 07:24:31;;;;;;;8.35;5.30;;;34.80;1.00;;;;;;5113911;28;20170;-76
2022/08/12 07:26:57;;;;;;;8.38;4.82;;;35.30;1.00;;;;;;5113605;28;20182;-76
2022/08/12 07:29:24;;;;;;;7.03;4.93;;;36.60;1.00;;;;;;5113736;28;20717;-76
2022/08/12 07:31:51;;;;;;;6.60;4.78;;;37.20;1.00;;;;;;5113461;28;20174;-76
2022/08/12 07:34:16;;;;;;;10.38;4.68;;;37.30;1.00;;;;;;5114242;28;20208;-76
2022/08/12 07:36:42;;;;;;;6.25;4.43;;;37.00;1.00;;;;;;5113985;28;20170;-76
2022/08/12 07:39:07;;;;;;;7.60;4.43;;;36.30;1.00;;;;;;5094453;28;20167;-76
2022/08/12 07:41:33;;;;;;;5.40;4.05;;;36.80;1.00;;;;;;5113025;28;20597;-76
2022/08/12 07:44:02;;;;;;;10.70;4.72;;;36.70;1.00;;;;;;5113596;28;20295;-76
2022/08/12 07:46:36;;;;;;;11.10;5.60;;;36.80;1.00;;;;;;5113260;28;20201;-76
2022/08/12 07:49:14;;;;;;;15.38;5.88;;;37.70;1.00;;;;;;5113732;28;20198;-75
2022/08/12 07:51:42;;;;;;;10.73;5.88;;;38.30;1.00;;;;;;5113533;28;20166;-76
2022/08/12 07:54:08;;;;;;;17.17;5.53;;;37.50;1.00;;;;;;5113195;28;20170;-76
2022/08/12 07:56:37;;;;;;;10.40;5.28;;;37.50;1.00;;;;;;5113207;28;20162;-76
2022/08/12 07:59:03;;;;;;;8.75;5.53;;;37.00;1.00;;;;;;5113560;28;20167;-76
2022/08/12 08:01:29;;;;;;;6.82;5.20;;;37.40;1.00;;;;;;5094659;28;20173;-76
2022/08/12 08:06:41;;;;;;;8.43;5.70;;;37.90;1.00;;;;;;5113101;28;20178;-77
2022/08/12 08:09:09;;;;;;;8.07;5.30;;;38.00;1.00;;;;;;5112583;28;20210;-76
2022/08/12 08:14:19;;;;;;;7.53;4.95;;;38.90;1.00;;;;;;5113566;28;20316;-76
2022/08/12 08:16:47;;;;;;;7.97;4.78;;;38.60;1.00;;;;;;5112852;28;20214;-76
2022/08/12 08:19:22;;;;;;;6.28;4.55;;;36.00;1.00;;;;;;5112862;28;20189;-76
2022/08/12 08:21:55;;;;;;;10.23;5.03;;;36.90;1.00;;;;;;5112657;28;20181;-76
2022/08/12 08:24:23;;;;;;;8.98;4.80;;;37.80;1.00;;;;;;5112924;28;20175;-76
2022/08/12 08:26:51;;;;;;;7.05;4.50;;;36.00;1.00;;;;;;5112757;28;20189;-76
2022/08/12 08:29:20;;;;;;;11.35;4.72;;;36.00;1.00;;;;;;5112958;28;20569;-75
2022/08/12 08:31:49;;;;;;;5.20;4.63;;;35.90;1.00;;;;;;5112533;28;20167;-76
2022/08/12 08:34:16;;;;;;;8.23;4.30;;;36.20;1.00;;;;;;5112887;28;20223;-76
2022/08/12 08:36:43;;;;;;;6.57;4.65;;;36.00;1.00;;;;;;5113011;28;20171;-77
2022/08/12 08:39:11;;;;;;;8.68;4.05;;;37.30;1.00;;;;;;5112344;28;20174;-77
2022/08/12 08:44:22;;;;;;;4.90;4.40;;;36.80;1.00;;;;;;5113305;28;20235;-78
2022/08/12 08:46:48;;;;;;;6.35;4.28;;;36.10;1.00;;;;;;5112649;28;20237;-77
2022/08/12 08:49:17;;;;;;;13.00;5.00;;;36.80;1.00;;;;;;5112830;28;20323;-77
2022/08/12 08:51:44;;;;;;;11.23;4.70;;;37.40;1.00;;;;;;5117015;28;20167;-76
2022/08/12 08:54:11;;;;;;;4.25;3.90;;;38.70;1.00;;;;;;5116626;28;20190;-77
2022/08/12 08:56:41;;;;;;;5.85;4.07;;;38.20;1.00;;;;;;5116130;28;20171;-76
2022/08/12 08:59:07;;;;;;;6.93;4.45;;;37.90;1.00;;;;;;5116625;28;20167;-77
2022/08/12 09:01:33;;;;;;;6.82;5.30;;;36.90;1.00;;;;;;5098121;28;20170;-76
2022/08/12 09:03:59;;;;;;;9.82;4.85;;;37.60;1.00;;;;;;5116419;28;20618;-75
2022/08/12 09:06:25;;;;;;;8.88;4.50;;;38.70;1.00;;;;;;5097725;28;20182;-75
2022/08/12 09:08:50;;;;;;;9.23;4.43;;;38.70;1.00;;;;;;5115267;28;20230;-75
2022/08/12 09:14:06;;;;;;;5.82;3.90;;;38.30;1.00;;;;;;5116617;28;20217;-76
2022/08/12 09:16:38;;;;;;;5.65;4.07;;;38.10;1.00;;;;;;5115918;28;20345;-75
2022/08/12 09:19:04;;;;;;;4.80;3.67;;;37.40;1.00;;;;;;5116094;28;20186;-76
2022/08/12 09:21:31;;;;;;;6.13;3.60;;;37.10;1.00;;;;;;5116126;28;20181;-75
2022/08/12 09:24:00;;;;;;;4.32;3.60;;;37.00;1.00;;;;;;5116147;28;20163;-76
2022/08/12 09:26:30;;;;;;;9.13;3.90;;;36.20;1.00;;;;;;5116391;28;20659;-76
2022/08/12 09:28:57;;;;;;;6.35;3.38;;;35.20;1.00;;;;;;5115706;28;20211;-75
2022/08/12 09:31:23;;;;;;;6.40;3.92;;;35.30;1.00;;;;;;5115590;28;20262;-75
2022/08/12 09:33:49;;;;;;;9.43;3.90;;;36.30;1.00;;;;;;5115965;28;20171;-75
2022/08/12 09:36:16;;;;;;;10.65;3.50;;;36.90;1.00;;;;;;5116186;28;20174;-76
2022/08/12 09:38:42;;;;;;;8.65;3.50;;;37.10;1.00;;;;;;5115023;28;20177;-76
2022/08/12 09:41:08;;;;;;;4.03;3.40;;;36.60;1.00;;;;;;5115722;28;20236;-75
2022/08/12 09:46:18;;;;;;;10.18;3.20;;;35.80;1.00;;;;;;5115787;28;20224;-75
2022/08/12 09:48:43;;;;;;;3.78;3.17;;;35.20;1.00;;;;;;5115245;28;20218;-76
2022/08/12 09:51:11;;;;;;;6.65;2.97;;;34.50;1.00;;;;;;5116153;28;20263;-76
2022/08/12 09:53:38;;;;;;;5.93;3.08;;;34.60;1.00;;;;;;5115151;28;20229;-76
2022/08/12 09:56:12;;;;;;;7.43;5.18;;;34.20;1.00;;;;;;5115702;28;20179;-76
2022/08/12 09:58:40;;;;;;;3.72;3.42;;;34.20;1.00;;;;;;5115634;28;20174;-76
2022/08/12 10:01:06;;;;;;;6.13;3.03;;;33.70;1.00;;;;;;5114537;28;20163;-75
2022/08/12 10:03:35;;;;;;;6.50;3.20;;;33.60;1.00;;;;;;5115123;28;20279;-78
2022/08/12 10:06:06;;;;;;;4.07;3.00;;;34.00;1.00;;;;;;5115212;28;20695;-76
2022/08/12 10:08:33;;;;;;;6.32;2.90;;;33.70;1.00;;;;;;5114378;28;20207;-80
2022/08/12 10:13:47;;;;;;;4.53;3.00;;;34.20;1.00;;;;;;5108112;28;20181;-75
2022/08/12 10:16:17;;;;;;;6.18;4.18;;;34.20;1.00;;;;;;5113623;28;20280;-72
2022/08/12 10:19:00;;;;;;;6.05;4.38;;;34.80;1.00;;;;;;5115261;28;20216;-73
2022/08/12 10:21:35;;;;;;;3.92;3.30;;;35.10;1.00;;;;;;5113358;28;20188;-73
2022/08/12 10:24:03;;;;;;;8.05;3.08;;;34.80;1.00;;;;;;5114325;28;20170;-75
2022/08/12 10:31:59;;;;;;;4.30;3.03;;;33.60;1.00;;;;;;5114731;28;20687;-77
2022/08/12 10:34:26;;;;;;;4.20;3.00;;;33.50;1.00;;;;;;5114918;28;20170;-76
2022/08/12 10:36:57;;;;;;;5.00;3.08;;;33.60;1.00;;;;;;5113273;28;20170;-73
2022/08/12 10:39:36;;;;;;;4.28;3.40;;;33.50;1.00;;;;;;5113079;28;20175;-76
2022/08/12 10:44:48;;;;;;;3.33;2.95;;;33.40;1.00;;;;;;5113448;28;20525;-76
2022/08/12 10:47:19;;;;;;;3.17;2.95;;;33.30;1.00;;;;;;5110620;28;20172;-75
2022/08/12 10:49:46;;;;;;;5.00;3.95;;;33.20;1.00;;;;;;5094524;28;20215;-76
2022/08/12 10:52:12;;;;;;;4.57;3.33;;;32.90;1.00;;;;;;5112972;28;20246;-75
2022/08/12 10:54:40;;;;;;;4.90;3.00;;;33.00;1.00;;;;;;5112727;28;20606;-76
2022/08/12 10:57:06;;;;;;;10.70;3.33;;;33.20;1.00;;;;;;5111617;28;20638;-77
2022/08/12 10:59:31;;;;;;;7.43;3.08;;;33.00;1.00;;;;;;5111725;28;20171;-76
2022/08/12 11:01:58;;;;;;;6.82;3.50;;;33.00;1.00;;;;;;5087681;28;20171;-76
2022/08/12 11:04:29;;;;;;;5.13;3.28;;;33.50;1.00;;;;;;5075072;28;20584;-76
2022/08/12 11:06:56;;;;;;;3.00;2.70;;;33.60;1.00;;;;;;5092621;28;20229;-75
2022/08/12 11:09:24;;;;;;;3.55;3.10;;;33.50;1.00;;;;;;5092665;28;20200;-74
2022/08/12 11:11:49;;;;;;;4.82;3.13;;;33.60;1.00;;;;;;5092829;28;20229;-74
2022/08/12 11:14:16;;;;;;;6.88;2.80;;;33.40;1.00;;;;;;5092782;28;20179;-73
2022/08/12 11:16:45;;;;;;;4.45;2.80;;;33.90;1.00;;;;;;5092534;28;20219;-74
2022/08/12 11:19:13;;;;;;;5.50;2.88;;;33.40;1.00;;;;;;5092843;28;20172;-74
2022/08/12 11:21:39;;;;;;;5.60;2.75;;;32.50;1.00;;;;;;5113698;28;20548;-76
2022/08/12 11:24:05;;;;;;;3.15;2.72;;;32.70;1.00;;;;;;5112290;28;20175;-74
2022/08/12 11:26:31;;;;;;;4.22;3.25;;;32.80;1.00;;;;;;5113746;28;20237;-74
2022/08/12 11:28:57;;;;;;;3.20;2.90;;;32.30;1.00;;;;;;5114066;28;20207;-74
2022/08/12 11:31:23;;;;;;;3.10;2.80;;;32.40;1.00;;;;;;5112661;28;20163;-74
2022/08/12 11:33:49;;;;;;;2.90;2.60;;;32.10;1.00;;;;;;5113229;28;20209;-75
2022/08/12 11:36:16;;;;;;;3.00;2.80;;;32.80;1.00;;;;;;5112953;28;20163;-73
2022/08/12 11:38:41;;;;;;;2.90;2.70;;;33.50;1.00;;;;;;5113416;28;20167;-75
2022/08/12 11:41:07;;;;;;;2.50;2.30;;;33.80;1.00;;;;;;5112840;28;20200;-75
2022/08/12 11:43:33;;;;;;;2.65;2.30;;;33.70;1.00;;;;;;5113955;28;20793;-76
2022/08/12 11:45:59;;;;;;;4.75;2.50;;;33.00;1.00;;;;;;5112959;28;20218;-75
2022/08/12 11:48:25;;;;;;;4.63;2.40;;;32.30;1.00;;;;;;5112826;28;20194;-74
2022/08/12 11:50:51;;;;;;;3.03;2.83;;;32.80;1.00;;;;;;5113143;28;20164;-76
2022/08/12 11:53:16;;;;;;;6.32;2.78;;;33.20;1.00;;;;;;5112155;28;20167;-73
2022/08/12 11:55:42;;;;;;;3.08;2.78;;;33.80;1.00;;;;;;5112958;28;20172;-74
2022/08/12 11:58:07;;;;;;;4.22;2.63;;;33.10;1.00;;;;;;5112851;28;20626;-73
2022/08/12 12:00:33;;;;;;;6.45;2.55;;;33.10;1.00;;;;;;5112233;28;20171;-73
2022/08/12 12:02:59;;;;;;;2.85;2.65;;;33.10;1.00;;;;;;5112631;28;20198;-73
2022/08/12 12:05:24;;;;;;;4.13;2.60;;;32.60;1.00;;;;;;5112329;28;20186;-72
2022/08/12 12:07:50;;;;;;;2.80;2.60;;;32.60;1.00;;;;;;5112853;28;20206;-74
2022/08/12 12:10:19;;;;;;;3.72;2.65;;;32.30;1.00;;;;;;5112769;28;20606;-73
2022/08/12 12:12:45;;;;;;;3.30;3.00;;;32.20;1.00;;;;;;5113034;28;20231;-72
2022/08/12 12:15:12;;;;;;;4.25;3.10;;;32.20;1.00;;;;;;5112648;28;20252;-72
2022/08/12 12:17:40;;;;;;;3.53;2.88;;;32.40;1.00;;;;;;5111921;28;20246;-73
2022/08/12 12:20:09;;;;;;;7.60;2.88;;;31.90;1.00;;;;;;5112743;28;20236;-72
2022/08/12 12:22:36;;;;;;;8.25;3.15;;;32.00;1.00;;;;;;5112076;28;20520;-72
2022/08/12 12:25:03;;;;;;;4.80;3.28;;;32.20;1.00;;;;;;5113210;28;20249;-73
2022/08/12 12:27:45;;;;;;;4.53;2.70;;;32.20;1.00;;;;;;5117172;28;20650;-74
2022/08/12 12:30:11;;;;;;;2.88;2.45;;;32.10;1.00;;;;;;5117094;28;20183;-72
2022/08/12 12:32:37;;;;;;;3.92;2.60;;;31.80;1.00;;;;;;5117072;28;20263;-72
2022/08/12 12:35:02;;;;;;;3.25;2.80;;;31.50;1.00;;;;;;5116274;28;20481;-73
2022/08/12 12:37:28;;;;;;;4.70;3.30;;;31.20;1.00;;;;;;5116809;28;20175;-73
2022/08/12 12:39:57;;;;;;;4.40;2.95;;;31.20;1.00;;;;;;5116873;27;20209;-72
2022/08/12 12:42:22;;;;;;;6.90;3.47;;;31.30;1.00;;;;;;5116661;28;20170;-74
2022/08/12 12:44:48;;;;;;;3.70;2.70;;;31.50;1.00;;;;;;5116164;28;20183;-72
2022/08/12 12:47:15;;;;;;;6.80;3.60;;;31.40;1.00;;;;;;5116046;28;20682;-71
2022/08/12 12:49:41;;;;;;;5.22;4.25;;;31.70;1.00;;;;;;5115803;28;20195;-74
2022/08/12 12:52:07;;;;;;;3.63;2.75;;;31.80;1.00;;;;;;5116071;28;20167;-75
2022/08/12 12:54:32;;;;;;;4.10;3.72;;;31.80;1.00;;;;;;5115139;28;20645;-75
2022/08/12 12:56:58;;;;;;;4.38;2.83;;;32.00;1.00;;;;;;5115188;28;20240;-74
2022/08/12 12:59:26;;;;;;;3.95;3.20;;;31.90;1.00;;;;;;5116398;28;20259;-74
2022/08/12 13:01:52;;;;;;;6.03;5.43;;;31.40;1.00;;;;;;5115629;28;20191;-73
2022/08/12 13:04:17;;;;;;;3.88;3.58;;;31.50;1.00;;;;;;5116284;28;20652;-74
2022/08/12 13:06:45;;;;;;;4.20;2.88;;;31.60;1.00;;;;;;5115860;28;20171;-74
2022/08/12 13:09:12;;;;;;;3.63;3.33;;;31.70;1.00;;;;;;5116633;28;20647;-74
2022/08/12 13:11:37;;;;;;;3.75;2.58;;;31.60;1.00;;;;;;5115166;28;20174;-74
2022/08/12 13:14:04;;;;;;;3.92;3.63;;;31.80;1.00;;;;;;5115911;28;20183;-72
2022/08/12 13:16:29;;;;;;;6.07;3.20;;;31.90;1.00;;;;;;5114903;28;20207;-73
2022/08/12 13:18:55;;;;;;;6.07;2.60;;;31.80;1.00;;;;;;5115886;28;20167;-71
2022/08/12 13:21:21;;;;;;;3.58;2.83;;;31.90;1.00;;;;;;5116098;28;20167;-73
2022/08/12 13:23:49;;;;;;;2.67;2.45;;;32.00;1.00;;;;;;5115650;28;20181;-73
2022/08/12 13:26:17;;;;;;;4.95;2.40;;;31.80;1.00;;;;;;5115806;28;20159;-71
2022/08/12 13:28:49;;;;;;;3.22;2.70;;;31.70;1.00;;;;;;5114931;28;20218;-72
2022/08/12 13:31:15;;;;;;;8.30;3.60;;;31.60;1.00;;;;;;5114073;28;20168;-73
2022/08/12 13:33:41;;;;;;;3.20;2.60;;;31.60;1.00;;;;;;5116095;28;20167;-71
2022/08/12 13:36:09;;;;;;;3.80;2.22;;;31.40;1.00;;;;;;5115037;28;20619;-71
2022/08/12 13:38:38;;;;;;;5.55;2.70;;;31.70;1.00;;;;;;5115673;28;20175;-71
2022/08/12 13:41:12;;;;;;;3.88;2.70;;;31.80;1.00;;;;;;5115042;28;20215;-71
2022/08/12 13:43:38;;;;;;;3.22;2.83;;;31.80;1.00;;;;;;5115486;28;20171;-71
2022/08/12 13:46:05;;;;;;;3.45;3.15;;;31.70;1.00;;;;;;5114173;28;20167;-73
2022/08/12 13:48:30;;;;;;;5.45;2.72;;;31.80;1.00;;;;;;5115410;28;20198;-72
2022/08/12 13:50:56;;;;;;;5.40;3.35;;;32.10;1.00;;;;;;5113609;28;20163;-72
2022/08/12 13:53:22;;;;;;;6.88;2.88;;;32.00;1.00;;;;;;5114648;27;20572;-73
2022/08/12 13:55:50;;;;;;;3.38;2.78;;;32.00;1.00;;;;;;5130363;27;20167;-72
2022/08/12 13:58:18;;;;;;;3.10;2.53;;;31.90;1.00;;;;;;5113613;28;20171;-73
2022/08/12 14:00:45;;;;;;;5.18;2.75;;;32.00;1.00;;;;;;5113775;28;20629;-73
2022/08/12 14:03:15;;;;;;;2.75;2.55;;;31.90;1.00;;;;;;5115158;28;20171;-74
2022/08/12 14:05:41;;;;;;;6.05;3.03;;;31.90;1.00;;;;;;5114543;28;20164;-72
2022/08/12 14:08:09;;;;;;;3.08;2.40;;;31.60;1.00;;;;;;5114748;28;20202;-71
2022/08/12 14:10:38;;;;;;;2.78;2.58;;;31.80;1.00;;;;;;5114923;28;20177;-74
2022/08/12 14:13:15;;;;;;;5.82;3.58;;;31.70;1.00;;;;;;5114284;28;20159;-72
2022/08/12 14:15:47;;;;;;;2.97;2.72;;;31.80;1.00;;;;;;5114418;28;20171;-72
2022/08/12 14:18:24;;;;;;;3.75;2.58;;;31.80;1.00;;;;;;5096350;28;20191;-73
2022/08/12 14:20:59;;;;;;;4.90;2.83;;;31.90;1.00;;;;;;5114018;28;20172;-74
2022/08/12 14:23:27;;;;;;;4.07;2.33;;;31.80;1.00;;;;;;5115077;28;20185;-72
2022/08/12 14:25:54;;;;;;;2.83;2.58;;;31.80;1.00;;;;;;5096723;28;20185;-72
2022/08/12 14:28:22;;;;;;;2.63;2.45;;;31.70;1.00;;;;;;5114127;28;20207;-73
2022/08/12 14:30:57;;;;;;;2.85;2.65;;;31.60;1.00;;;;;;5095844;28;20182;-73
2022/08/12 14:33:46;;;;;;;5.13;2.55;;;31.80;1.00;;;;;;5113718;28;20182;-73
2022/08/12 14:36:13;;;;;;;2.40;2.20;;;31.80;1.00;;;;;;5114415;27;20752;-73
2022/08/12 14:38:40;;;;;;;3.20;2.42;;;31.70;1.00;;;;;;5114709;28;20180;-72
2022/08/12 14:41:11;;;;;;;4.43;2.70;;;31.60;1.00;;;;;;5114085;28;20173;-73
2022/08/12 14:43:38;;;;;;;3.28;2.30;;;31.80;1.00;;;;;;5112657;28;20256;-73
2022/08/12 14:46:15;;;;;;;3.70;2.70;;;31.70;1.00;;;;;;5113500;28;20278;-73
2022/08/12 14:48:45;;;;;;;6.15;2.95;;;31.60;1.00;;;;;;5113900;27;20203;-72